createdAt,value
2018-09-19T00:01:05.833Z,1.93
2018-09-19T00:03:34.261Z,1.90
2018-09-19T00:06:02.777Z,2.37
2018-09-19T00:08:31.239Z,1.73
2018-09-19T00:10:59.713Z,2.07
2018-09-19T00:13:28.134Z,3.00
2018-09-19T00:15:56.579Z,2.00
2018-09-19T00:18:25.007Z,1.60
2018-09-19T00:20:53.485Z,2.53
2018-09-19T00:23:21.898Z,1.47
2018-09-19T00:25:50.349Z,3.87
2018-09-19T00:28:18.753Z,2.87
2018-09-19T00:30:47.227Z,1.60
2018-09-19T00:33:15.669Z,1.60
2018-09-19T00:35:44.170Z,2.93
2018-09-19T00:38:12.618Z,1.40
2018-09-19T00:40:41.072Z,1.40
2018-09-19T00:43:09.519Z,1.50
2018-09-19T00:45:38.127Z,3.20
2018-09-19T00:48:06.849Z,1.40
2018-09-19T00:50:35.299Z,2.23
2018-09-19T00:53:03.777Z,1.47
2018-09-19T00:55:32.194Z,1.70
2018-09-19T00:58:00.737Z,2.07
2018-09-19T01:00:29.211Z,1.87
2018-09-19T01:02:57.672Z,1.60
2018-09-19T01:05:26.121Z,2.80
2018-09-19T01:07:54.549Z,1.60
2018-09-19T01:10:22.993Z,2.10
2018-09-19T01:12:51.433Z,1.73
2018-09-19T01:15:19.841Z,1.87
2018-09-19T01:17:48.282Z,1.87
2018-09-19T01:20:16.680Z,2.27
2018-09-19T01:22:45.153Z,2.50
2018-09-19T01:25:13.559Z,1.77
2018-09-19T01:27:41.997Z,1.77
2018-09-19T01:30:10.426Z,3.73
2018-09-19T01:32:38.881Z,1.90
2018-09-19T01:35:07.302Z,2.07
2018-09-19T01:37:35.718Z,1.70
2018-09-19T01:40:04.355Z,2.07
2018-09-19T01:42:32.759Z,2.80
2018-09-19T01:45:02.050Z,2.20
2018-09-19T01:47:30.474Z,3.83
2018-09-19T01:49:58.907Z,1.90
2018-09-19T01:52:27.311Z,2.93
2018-09-19T01:54:55.735Z,2.00
2018-09-19T01:57:24.145Z,1.53
2018-09-19T01:59:52.611Z,1.63
2018-09-19T02:02:21.068Z,2.33
2018-09-19T02:04:49.510Z,2.10
2018-09-19T02:07:17.912Z,2.00
2018-09-19T02:09:46.349Z,1.80
2018-09-19T02:12:14.784Z,1.80
2018-09-19T02:14:43.222Z,3.47
2018-09-19T02:17:11.621Z,2.07
2018-09-19T02:19:40.068Z,1.50
2018-09-19T02:22:08.537Z,1.60
2018-09-19T02:24:36.987Z,2.10
2018-09-19T02:27:05.417Z,2.20
2018-09-19T02:29:33.888Z,2.13
2018-09-19T02:32:02.703Z,1.83
2018-09-19T02:34:31.119Z,1.60
2018-09-19T02:36:59.570Z,2.10
2018-09-19T02:39:27.974Z,1.87
2018-09-19T02:41:56.422Z,1.43
2018-09-19T02:44:24.844Z,1.70
2018-09-19T02:46:53.281Z,1.87
2018-09-19T02:49:21.705Z,1.60
2018-09-19T02:51:50.164Z,1.80
2018-09-19T02:54:18.570Z,1.63
2018-09-19T02:56:47.087Z,1.73
2018-09-19T02:59:15.501Z,1.93
2018-09-19T03:01:43.955Z,1.70
2018-09-19T03:04:12.351Z,2.30
2018-09-19T03:06:40.782Z,1.90
2018-09-19T03:09:09.193Z,2.10
2018-09-19T03:11:37.621Z,2.37
2018-09-19T03:14:06.030Z,2.33
2018-09-19T03:16:40.578Z,2.70
2018-09-19T03:19:09.020Z,3.27
2018-09-19T03:21:37.541Z,2.83
2018-09-19T03:24:05.989Z,3.50
2018-09-19T03:26:34.442Z,3.43
2018-09-19T03:29:03.646Z,3.33
2018-09-19T03:31:32.132Z,3.53
2018-09-19T03:34:00.601Z,2.07
2018-09-19T03:36:29.065Z,2.37
2018-09-19T03:38:57.533Z,1.97
2018-09-19T03:41:26.079Z,3.50
2018-09-19T03:43:54.579Z,2.10
2018-09-19T03:46:23.042Z,3.40
2018-09-19T03:48:51.500Z,2.93
2018-09-19T03:51:19.957Z,2.40
2018-09-19T03:53:48.413Z,2.33
2018-09-19T03:56:16.879Z,4.27
2018-09-19T03:58:45.516Z,2.30
2018-09-19T04:01:13.936Z,2.40
2018-09-19T04:03:42.462Z,1.90
2018-09-19T04:06:10.906Z,1.90
2018-09-19T04:08:39.345Z,3.17
2018-09-19T04:11:07.855Z,2.20
2018-09-19T04:13:36.341Z,4.90
2018-09-19T04:16:04.779Z,3.40
2018-09-19T04:18:33.273Z,1.97
2018-09-19T04:21:02.621Z,1.77
2018-09-19T04:23:31.124Z,1.80
2018-09-19T04:25:59.570Z,1.90
2018-09-19T04:28:28.021Z,2.17
2018-09-19T04:30:56.510Z,2.13
2018-09-19T04:33:24.946Z,3.13
2018-09-19T04:35:53.411Z,3.90
2018-09-19T04:38:21.837Z,2.53
2018-09-19T04:40:51.444Z,2.53
2018-09-19T04:43:19.869Z,2.90
2018-09-19T04:45:48.562Z,4.87
2018-09-19T04:48:17.064Z,4.53
2018-09-19T04:50:45.554Z,2.97
2018-09-19T04:53:13.985Z,3.10
2018-09-19T04:55:42.428Z,2.20
2018-09-19T04:58:10.879Z,2.53
2018-09-19T05:00:39.336Z,3.13
2018-09-19T05:03:07.737Z,2.27
2018-09-19T05:05:36.277Z,2.60
2018-09-19T05:08:04.679Z,2.70
2018-09-19T05:10:33.188Z,3.20
2018-09-19T05:13:02.049Z,2.87
2018-09-19T05:15:30.568Z,3.40
2018-09-19T05:17:59.075Z,3.53
2018-09-19T05:20:27.499Z,4.10
2018-09-19T05:22:56.039Z,4.10
2018-09-19T05:25:24.425Z,4.00
2018-09-19T05:27:52.899Z,2.67
2018-09-19T05:30:21.319Z,4.57
2018-09-19T05:32:49.788Z,5.43
2018-09-19T05:35:18.188Z,4.07
2018-09-19T05:37:46.652Z,5.43
2018-09-19T05:40:15.101Z,4.33
2018-09-19T05:42:43.607Z,7.60
2018-09-19T05:45:12.016Z,3.23
2018-09-19T05:47:40.682Z,2.90
2018-09-19T05:50:09.276Z,4.50
2018-09-19T05:52:37.736Z,3.40
2018-09-19T05:55:06.193Z,5.47
2018-09-19T05:57:36.248Z,4.23
2018-09-19T06:00:05.328Z,3.77
2018-09-19T06:02:33.866Z,6.37
2018-09-19T06:05:02.372Z,5.23
2018-09-19T06:07:30.821Z,7.20
2018-09-19T06:09:59.258Z,10.17
2018-09-19T06:12:27.682Z,4.23
2018-09-19T06:14:56.137Z,4.83
2018-09-19T06:17:24.699Z,5.63
2018-09-19T06:19:53.181Z,7.13
2018-09-19T06:22:21.644Z,4.97
2018-09-19T06:24:50.097Z,5.57
2018-09-19T06:27:18.498Z,4.73
2018-09-19T06:29:46.974Z,3.90
2018-09-19T06:32:15.374Z,3.70
2018-09-19T06:34:43.834Z,4.50
2018-09-19T06:37:12.337Z,4.77
2018-09-19T06:39:41.195Z,5.57
2018-09-19T06:42:09.603Z,6.57
2018-09-19T06:44:38.121Z,5.90
2018-09-19T06:47:06.550Z,7.20
2018-09-19T06:49:34.986Z,4.93
2018-09-19T06:52:03.710Z,4.47
2018-09-19T06:54:32.151Z,4.73
2018-09-19T06:57:00.592Z,7.43
2018-09-19T06:59:30.297Z,5.83
2018-09-19T07:01:58.713Z,4.17
2018-09-19T07:04:27.197Z,4.17
2018-09-19T07:06:55.679Z,5.07
2018-09-19T07:09:24.124Z,4.73
2018-09-19T07:11:52.616Z,6.07
2018-09-19T07:14:21.038Z,4.67
2018-09-19T07:16:49.474Z,5.70
2018-09-19T07:19:17.869Z,4.50
2018-09-19T07:21:46.383Z,5.27
2018-09-19T07:24:14.890Z,7.90
2018-09-19T07:26:43.375Z,6.80
2018-09-19T07:29:11.812Z,6.10
2018-09-19T07:31:40.283Z,10.13
2018-09-19T07:34:08.724Z,4.53
2018-09-19T07:36:37.190Z,5.33
2018-09-19T07:39:08.562Z,8.33
2018-09-19T07:41:37.032Z,4.83
2018-09-19T07:44:05.460Z,6.90
2018-09-19T07:46:34.019Z,8.43
2018-09-19T07:49:03.026Z,5.23
2018-09-19T07:51:31.542Z,4.93
2018-09-19T07:53:59.974Z,6.03
2018-09-19T07:56:28.511Z,5.45
2018-09-19T07:58:57.281Z,5.63
2018-09-19T08:01:25.757Z,5.25
2018-09-19T08:03:54.250Z,8.70
2018-09-19T08:06:22.661Z,5.80
2018-09-19T08:08:51.118Z,7.35
2018-09-19T08:11:19.566Z,5.62
2018-09-19T08:13:48.073Z,6.55
2018-09-19T08:16:16.535Z,7.25
2018-09-19T08:18:44.959Z,6.40
2018-09-19T08:21:13.390Z,7.37
2018-09-19T08:23:41.841Z,7.30
2018-09-19T08:26:10.286Z,6.62
2018-09-19T08:28:38.801Z,7.83
2018-09-19T08:31:07.225Z,9.20
2018-09-19T08:33:35.701Z,5.95
2018-09-19T08:36:04.205Z,7.50
2018-09-19T08:38:32.710Z,6.55
2018-09-19T08:41:01.208Z,6.25
2018-09-19T08:43:29.656Z,6.55
2018-09-19T08:45:58.149Z,7.40
2018-09-19T08:48:26.609Z,8.25
2018-09-19T08:50:55.144Z,6.45
2018-09-19T08:53:23.597Z,7.45
2018-09-19T08:55:52.096Z,7.78
2018-09-19T08:58:20.556Z,5.65
2018-09-19T09:00:49.034Z,7.62
2018-09-19T09:03:17.513Z,6.67
2018-09-19T09:05:46.027Z,5.62
2018-09-19T09:08:14.447Z,7.72
2018-09-19T09:10:43.153Z,5.17
2018-09-19T09:13:11.550Z,6.33
2018-09-19T09:15:40.033Z,7.10
2018-09-19T09:18:08.405Z,5.80
2018-09-19T09:20:36.820Z,4.80
2018-09-19T09:23:05.238Z,5.62
2018-09-19T09:25:33.674Z,6.17
2018-09-19T09:28:02.066Z,6.35
2018-09-19T09:30:30.486Z,5.08
2018-09-19T09:32:58.874Z,6.87
2018-09-19T09:35:27.289Z,8.05
2018-09-19T09:37:55.692Z,4.85
2018-09-19T09:40:24.179Z,4.40
2018-09-19T09:42:52.527Z,4.75
2018-09-19T09:45:20.977Z,5.65
2018-09-19T09:47:49.458Z,5.15
2018-09-19T09:50:18.065Z,5.72
2018-09-19T09:52:46.467Z,5.33
2018-09-19T09:55:14.889Z,6.67
2018-09-19T09:57:43.352Z,9.38
2018-09-19T10:00:11.757Z,9.28
2018-09-19T10:02:40.225Z,5.78
2018-09-19T10:05:08.635Z,5.55
2018-09-19T10:07:37.083Z,7.22
2018-09-19T10:10:05.508Z,7.60
2018-09-19T10:12:33.945Z,6.40
2018-09-19T10:15:02.359Z,6.60
2018-09-19T10:17:30.789Z,6.95
2018-09-19T10:19:59.186Z,9.63
2018-09-19T10:22:27.657Z,7.30
2018-09-19T10:24:56.050Z,8.03
2018-09-19T10:27:24.505Z,6.80
2018-09-19T10:29:52.943Z,6.80
2018-09-19T10:32:21.385Z,6.47
2018-09-19T10:34:49.789Z,8.60
2018-09-19T10:37:18.235Z,8.30
2018-09-19T10:39:46.649Z,6.15
2018-09-19T10:42:15.095Z,6.92
2018-09-19T10:44:43.590Z,6.30
2018-09-19T10:47:12.099Z,7.78
2018-09-19T10:49:40.563Z,7.12
2018-09-19T10:52:08.960Z,6.35
2018-09-19T10:54:37.390Z,6.15
2018-09-19T10:57:05.847Z,8.40
2018-09-19T10:59:34.452Z,7.25
2018-09-19T11:02:03.653Z,7.17
2018-09-19T11:04:32.457Z,6.80
2018-09-19T11:07:00.882Z,7.83
2018-09-19T11:09:29.321Z,7.65
2018-09-19T11:11:57.722Z,8.90
2018-09-19T11:14:26.206Z,8.35
2018-09-19T11:16:54.658Z,7.97
2018-09-19T11:19:23.109Z,6.87
2018-09-19T11:21:51.573Z,6.33
2018-09-19T11:24:20.003Z,7.78
2018-09-19T11:26:48.414Z,7.62
2018-09-19T11:29:16.861Z,7.03
2018-09-19T11:31:45.278Z,6.78
2018-09-19T11:34:13.715Z,7.20
2018-09-19T11:36:42.118Z,7.10
2018-09-19T11:39:12.298Z,8.90
2018-09-19T11:41:41.045Z,8.63
2018-09-19T11:44:09.621Z,7.20
2018-09-19T11:46:38.097Z,7.10
2018-09-19T11:49:06.602Z,7.15
2018-09-19T11:51:35.117Z,7.58
2018-09-19T11:54:03.522Z,7.12
2018-09-19T11:56:31.945Z,7.05
2018-09-19T11:59:00.406Z,6.72
2018-09-19T12:01:28.863Z,6.85
2018-09-19T12:03:57.255Z,6.87
2018-09-19T12:06:25.693Z,6.60
2018-09-19T12:08:54.094Z,6.67
2018-09-19T12:11:22.520Z,6.65
2018-09-19T12:13:50.923Z,7.10
2018-09-19T12:16:19.386Z,6.15
2018-09-19T12:18:47.794Z,6.70
2018-09-19T12:21:16.278Z,7.10
2018-09-19T12:23:44.707Z,6.35
2018-09-19T12:26:13.194Z,9.28
2018-09-19T12:28:41.577Z,7.15
2018-09-19T12:31:10.043Z,8.60
2018-09-19T12:33:38.465Z,8.13
2018-09-19T12:36:07.333Z,8.65
2018-09-19T12:38:35.777Z,6.90
2018-09-19T12:41:04.555Z,6.70
2018-09-19T12:43:32.978Z,8.55
2018-09-19T12:46:01.816Z,6.47
2018-09-19T12:48:30.309Z,6.75
2018-09-19T12:50:58.688Z,6.70
2018-09-19T12:53:27.155Z,6.80
2018-09-19T12:55:55.974Z,8.78
2018-09-19T12:58:24.458Z,7.90
2018-09-19T13:00:53.454Z,6.47
2018-09-19T13:03:22.005Z,8.55
2018-09-19T13:05:50.927Z,6.83
2018-09-19T13:08:19.350Z,6.58
2018-09-19T13:10:47.741Z,6.42
2018-09-19T13:13:16.217Z,6.53
2018-09-19T13:15:44.663Z,6.97
2018-09-19T13:18:13.093Z,6.25
2018-09-19T13:20:41.502Z,12.25
2018-09-19T13:23:09.997Z,5.92
2018-09-19T13:25:38.394Z,6.85
2018-09-19T13:28:06.841Z,6.60
2018-09-19T13:30:35.257Z,6.05
2018-09-19T13:33:03.732Z,6.22
2018-09-19T13:35:32.178Z,6.03
2018-09-19T13:38:00.584Z,8.50
2018-09-19T13:40:29.035Z,6.53
2018-09-19T13:42:57.490Z,7.20
2018-09-19T13:45:25.925Z,6.55
2018-09-19T13:47:54.316Z,7.78
2018-09-19T13:51:14.118Z,6.87
2018-09-19T13:53:42.530Z,7.10
2018-09-19T13:56:10.993Z,7.17
2018-09-19T13:58:39.387Z,7.20
2018-09-19T14:01:07.817Z,7.12
2018-09-19T14:03:36.242Z,7.37
2018-09-19T14:06:04.703Z,6.80
2018-09-19T14:08:33.118Z,6.90
2018-09-19T14:11:01.970Z,6.42
2018-09-19T14:13:30.409Z,7.50
2018-09-19T14:15:58.847Z,6.25
2018-09-19T14:18:27.265Z,7.30
2018-09-19T14:20:55.790Z,7.95
2018-09-19T14:23:24.226Z,7.62
2018-09-19T14:25:52.652Z,6.12
2018-09-19T14:28:21.121Z,7.67
2018-09-19T14:30:49.550Z,6.60
2018-09-19T14:33:17.977Z,8.00
2018-09-19T14:35:46.582Z,6.67
2018-09-19T14:38:14.933Z,7.70
2018-09-19T14:40:43.841Z,7.30
2018-09-19T14:43:12.294Z,7.10
2018-09-19T14:45:40.701Z,8.73
2018-09-19T14:48:09.124Z,7.17
2018-09-19T14:50:37.526Z,7.40
2018-09-19T14:53:06.104Z,6.70
2018-09-19T14:55:34.522Z,6.67
2018-09-19T14:58:03.872Z,7.12
2018-09-19T15:00:32.285Z,6.97
2018-09-19T15:03:00.789Z,7.22
2018-09-19T15:05:29.246Z,6.72
2018-09-19T15:07:57.727Z,7.42
2018-09-19T15:10:26.107Z,6.67
2018-09-19T15:12:54.541Z,6.70
2018-09-19T15:15:23.006Z,5.60
2018-09-19T15:17:51.429Z,5.92
2018-09-19T15:20:19.818Z,5.62
2018-09-19T15:22:48.330Z,7.33
2018-09-19T15:25:18.926Z,5.70
2018-09-19T15:27:47.836Z,6.37
2018-09-19T15:30:16.244Z,5.25
2018-09-19T15:32:44.659Z,4.58
2018-09-19T15:35:13.165Z,5.17
2018-09-19T15:37:41.566Z,5.15
2018-09-19T15:40:10.126Z,4.87
2018-09-19T15:42:38.534Z,7.65
2018-09-19T15:45:07.037Z,11.50
2018-09-19T15:47:35.434Z,5.95
2018-09-19T15:50:04.359Z,5.65
2018-09-19T15:52:32.926Z,7.30
2018-09-19T15:55:01.355Z,6.87
2018-09-19T15:57:29.928Z,6.30
2018-09-19T15:59:58.412Z,7.95
2018-09-19T16:02:26.974Z,6.47
2018-09-19T16:04:55.483Z,5.80
2018-09-19T16:07:23.977Z,5.85
2018-09-19T16:09:56.078Z,5.55
2018-09-19T16:12:24.470Z,4.95
2018-09-19T16:14:52.939Z,5.45
2018-09-19T16:17:21.341Z,5.62
2018-09-19T16:19:49.809Z,5.95
2018-09-19T16:22:18.235Z,5.70
2018-09-19T16:24:46.673Z,7.15
2018-09-19T16:27:15.189Z,7.08
2018-09-19T16:29:43.801Z,6.50
2018-09-19T16:32:12.289Z,6.25
2018-09-19T16:34:40.781Z,7.33
2018-09-19T16:37:09.350Z,8.35
2018-09-19T16:39:37.810Z,8.03
2018-09-19T16:42:06.406Z,6.87
2018-09-19T16:44:34.868Z,7.35
2018-09-19T16:47:03.810Z,7.70
2018-09-19T16:49:32.808Z,7.10
2018-09-19T16:52:01.863Z,7.97
2018-09-19T16:54:30.300Z,6.40
2018-09-19T16:56:58.753Z,5.62
2018-09-19T16:59:27.357Z,5.22
2018-09-19T17:01:55.961Z,5.72
2018-09-19T17:04:24.521Z,6.42
2018-09-19T17:06:52.989Z,6.30
2018-09-19T17:09:21.770Z,6.20
2018-09-19T17:11:50.196Z,5.92
2018-09-19T17:14:18.612Z,6.85
2018-09-19T17:16:47.054Z,6.70
2018-09-19T17:19:15.449Z,5.58
2018-09-19T17:21:43.971Z,7.95
2018-09-19T17:24:12.386Z,6.60
2018-09-19T17:26:40.802Z,5.60
2018-09-19T17:29:09.306Z,5.28
2018-09-19T17:31:37.881Z,5.15
2018-09-19T17:34:06.479Z,6.17
2018-09-19T17:36:35.006Z,6.12
2018-09-19T17:39:04.762Z,4.97
2018-09-19T17:41:33.246Z,5.85
2018-09-19T17:44:01.814Z,6.20
2018-09-19T17:46:30.429Z,7.33
2018-09-19T17:48:59.046Z,4.47
2018-09-19T17:51:27.463Z,7.58
2018-09-19T17:53:55.936Z,8.28
2018-09-19T17:56:24.441Z,9.60
2018-09-19T17:58:53.110Z,7.25
2018-09-19T18:01:21.639Z,6.00
2018-09-19T18:03:50.121Z,6.55
2018-09-19T18:06:18.717Z,5.60
2018-09-19T18:08:47.155Z,7.62
2018-09-19T18:11:15.626Z,8.10
2018-09-19T18:13:44.063Z,5.87
2018-09-19T18:16:12.557Z,5.95
2018-09-19T18:18:40.974Z,7.05
2018-09-19T18:21:09.445Z,7.40
2018-09-19T18:23:37.933Z,5.28
2018-09-19T18:26:06.335Z,6.08
2018-09-19T18:28:34.863Z,6.60
2018-09-19T18:31:03.282Z,8.40
2018-09-19T18:33:31.678Z,6.87
2018-09-19T18:36:00.633Z,6.37
2018-09-19T18:38:29.074Z,6.67
2018-09-19T18:40:57.662Z,8.15
2018-09-19T18:43:26.203Z,7.37
2018-09-19T18:45:54.725Z,6.85
2018-09-19T18:48:23.166Z,7.55
2018-09-19T18:50:51.687Z,7.45
2018-09-19T18:53:20.116Z,7.92
2018-09-19T18:55:48.570Z,7.58
2018-09-19T18:58:17.347Z,8.68
2018-09-19T19:00:46.062Z,7.75
2018-09-19T19:03:16.141Z,8.75
2018-09-19T19:05:44.571Z,8.45
2018-09-19T19:08:12.995Z,8.70
2018-09-19T19:10:41.445Z,8.68
2018-09-19T19:13:09.870Z,8.98
2018-09-19T19:15:38.269Z,9.73
2018-09-19T19:18:06.881Z,9.80
2018-09-19T19:20:35.887Z,12.13
2018-09-19T19:23:04.450Z,11.20
2018-09-19T19:25:32.974Z,9.78
2018-09-19T19:28:02.049Z,10.68
2018-09-19T19:30:30.559Z,11.30
2018-09-19T19:32:58.961Z,10.55
2018-09-19T19:35:27.502Z,11.88
2018-09-19T19:37:55.993Z,9.25
2018-09-19T19:40:24.379Z,11.43
2018-09-19T19:42:52.814Z,10.55
2018-09-19T19:45:21.266Z,11.75
2018-09-19T19:47:49.697Z,14.07
2018-09-19T19:50:18.125Z,11.65
2018-09-19T19:52:46.571Z,12.85
2018-09-19T19:55:14.974Z,10.75
2018-09-19T19:57:43.626Z,15.20
2018-09-19T20:00:12.065Z,12.25
2018-09-19T20:02:40.513Z,12.40
2018-09-19T20:05:08.943Z,14.83
2018-09-19T20:07:37.337Z,13.48
2018-09-19T20:10:05.844Z,11.53
2018-09-19T20:12:34.290Z,11.57
2018-09-19T20:15:02.905Z,11.60
2018-09-19T20:17:31.359Z,12.35
2018-09-19T20:20:00.561Z,11.78
2018-09-19T20:22:29.107Z,10.43
2018-09-19T20:24:57.883Z,11.15
2018-09-19T20:27:26.438Z,11.20
2018-09-19T20:29:55.048Z,12.00
2018-09-19T20:32:23.541Z,11.95
2018-09-19T20:34:52.021Z,11.57
2018-09-19T20:37:20.529Z,12.45
2018-09-19T20:39:49.062Z,12.95
2018-09-19T20:42:17.494Z,12.37
2018-09-19T20:44:45.954Z,11.22
2018-09-19T20:47:14.447Z,12.80
2018-09-19T20:49:42.874Z,14.93
2018-09-19T20:52:11.308Z,11.75
2018-09-19T20:54:39.810Z,10.70
2018-09-19T20:57:08.330Z,11.20
2018-09-19T20:59:38.956Z,9.98
2018-09-19T21:02:07.377Z,11.18
2018-09-19T21:04:35.973Z,11.08
2018-09-19T21:07:04.221Z,11.08
2018-09-19T21:09:32.601Z,11.18
2018-09-19T21:12:01.024Z,10.13
2018-09-19T21:14:29.436Z,10.35
2018-09-19T21:16:57.884Z,11.40
2018-09-19T21:19:26.266Z,10.65
2018-09-19T21:21:54.721Z,9.48
2018-09-19T21:24:23.238Z,10.90
2018-09-19T21:26:51.673Z,9.78
2018-09-19T21:29:20.098Z,10.60
2018-09-19T21:31:48.543Z,11.57
2018-09-19T21:34:17.021Z,10.10
2018-09-19T21:36:45.416Z,10.50
2018-09-19T21:39:13.805Z,9.73
2018-09-19T21:41:42.241Z,10.58
2018-09-19T21:44:10.650Z,10.03
2018-09-19T21:46:39.117Z,10.60
2018-09-19T21:49:07.524Z,10.75
2018-09-19T21:51:36.011Z,11.55
2018-09-19T21:54:04.421Z,11.38
2018-09-19T21:56:32.818Z,9.70
2018-09-19T21:59:01.262Z,10.72
2018-09-19T22:01:34.881Z,9.83
2018-09-19T22:04:03.346Z,10.18
2018-09-19T22:06:31.770Z,11.03
2018-09-19T22:09:00.215Z,10.55
2018-09-19T22:11:28.650Z,10.23
2018-09-19T22:13:57.114Z,9.55
2018-09-19T22:16:25.514Z,8.93
2018-09-19T22:18:53.993Z,10.97
2018-09-19T22:21:22.373Z,9.43
2018-09-19T22:23:50.849Z,14.20
2018-09-19T22:26:19.298Z,12.40
2018-09-19T22:28:47.723Z,10.60
2018-09-19T22:31:16.152Z,9.33
2018-09-19T22:33:44.570Z,7.70
2018-09-19T22:36:13.049Z,8.20
2018-09-19T22:38:41.468Z,7.53
2018-09-19T22:41:09.910Z,7.55
2018-09-19T22:43:38.346Z,8.20
2018-09-19T22:46:06.938Z,6.92
2018-09-19T22:48:35.367Z,8.40
2018-09-19T22:51:03.813Z,7.60
2018-09-19T22:53:32.237Z,8.17
2018-09-19T22:56:00.676Z,7.20
2018-09-19T22:58:29.070Z,8.60
2018-09-19T23:00:57.493Z,7.67
2018-09-19T23:03:25.901Z,7.40
2018-09-19T23:05:54.329Z,8.17
2018-09-19T23:08:22.721Z,8.47
2018-09-19T23:10:51.137Z,7.73
2018-09-19T23:13:19.554Z,7.30
2018-09-19T23:15:47.973Z,7.73
2018-09-19T23:18:16.392Z,7.87
2018-09-19T23:20:44.841Z,7.23
2018-09-19T23:23:13.400Z,7.57
2018-09-19T23:25:41.850Z,7.47
2018-09-19T23:28:10.247Z,6.90
2018-09-19T23:30:39.404Z,7.50
2018-09-19T23:33:07.858Z,7.07
2018-09-19T23:35:36.305Z,6.67
2018-09-19T23:38:05.517Z,7.13
2018-09-19T23:40:34.622Z,7.13
2018-09-19T23:43:03.013Z,7.10
2018-09-19T23:45:31.461Z,9.87
2018-09-19T23:47:59.854Z,6.87
2018-09-19T23:50:28.254Z,7.83
2018-09-19T23:52:56.677Z,6.80
2018-09-19T23:55:25.114Z,7.00
2018-09-19T23:57:53.591Z,7.53
